sensor_id;sensor_type;location;lat;lon;timestamp;P1;durP1;ratioP1;P2;durP2;ratioP2
58876;SDS011;44659;47.002;9.536;2022-07-17T00:02:18;7.68;;;1.80;;
58876;SDS011;44659;47.002;9.536;2022-07-17T00:04:44;3.92;;;1.48;;
58876;SDS011;44659;47.002;9.536;2022-07-17T00:07:11;3.85;;;1.33;;
58876;SDS011;44659;47.002;9.536;2022-07-17T00:09:36;3.03;;;1.60;;
58876;SDS011;44659;47.002;9.536;2022-07-17T00:12:02;3.53;;;1.40;;
58876;SDS011;44659;47.002;9.536;2022-07-17T00:14:27;3.70;;;1.40;;
58876;SDS011;44659;47.002;9.536;2022-07-17T00:16:52;3.40;;;1.40;;
58876;SDS011;44659;47.002;9.536;2022-07-17T00:19:19;3.03;;;1.40;;
58876;SDS011;44659;47.002;9.536;2022-07-17T00:21:46;2.65;;;1.40;;
58876;SDS011;44659;47.002;9.536;2022-07-17T00:24:11;3.72;;;1.38;;
58876;SDS011;44659;47.002;9.536;2022-07-17T00:29:36;2.78;;;1.40;;
58876;SDS011;44659;47.002;9.536;2022-07-17T00:32:02;4.00;;;1.50;;
58876;SDS011;44659;47.002;9.536;2022-07-17T00:34:27;5.45;;;1.55;;
58876;SDS011;44659;47.002;9.536;2022-07-17T00:36:56;2.78;;;1.42;;
58876;SDS011;44659;47.002;9.536;2022-07-17T00:39:24;3.70;;;1.50;;
58876;SDS011;44659;47.002;9.536;2022-07-17T00:41:51;3.80;;;1.55;;
58876;SDS011;44659;47.002;9.536;2022-07-17T00:44:16;3.22;;;1.63;;
58876;SDS011;44659;47.002;9.536;2022-07-17T00:46:58;3.30;;;1.40;;
58876;SDS011;44659;47.002;9.536;2022-07-17T00:49:32;3.20;;;1.48;;
58876;SDS011;44659;47.002;9.536;2022-07-17T00:55:34;3.90;;;1.42;;
58876;SDS011;44659;47.002;9.536;2022-07-17T00:58:28;5.13;;;1.70;;
58876;SDS011;44659;47.002;9.536;2022-07-17T01:03:42;2.95;;;1.30;;
58876;SDS011;44659;47.002;9.536;2022-07-17T01:06:20;3.22;;;1.40;;
58876;SDS011;44659;47.002;9.536;2022-07-17T01:08:46;3.42;;;1.52;;
58876;SDS011;44659;47.002;9.536;2022-07-17T01:11:15;3.25;;;1.60;;
58876;SDS011;44659;47.002;9.536;2022-07-17T01:14:29;4.00;;;1.33;;
58876;SDS011;44659;47.002;9.536;2022-07-17T01:16:56;3.22;;;1.50;;
58876;SDS011;44659;47.002;9.536;2022-07-17T01:19:21;4.18;;;1.42;;
58876;SDS011;44659;47.002;9.536;2022-07-17T01:21:50;2.78;;;1.50;;
58876;SDS011;44659;47.002;9.536;2022-07-17T01:27:33;4.07;;;1.60;;
58876;SDS011;44659;47.002;9.536;2022-07-17T01:29:58;3.17;;;1.67;;
58876;SDS011;44659;47.002;9.536;2022-07-17T01:32:33;3.00;;;1.50;;
58876;SDS011;44659;47.002;9.536;2022-07-17T01:34:58;4.10;;;1.63;;
58876;SDS011;44659;47.002;9.536;2022-07-17T01:37:23;4.47;;;1.83;;
58876;SDS011;44659;47.002;9.536;2022-07-17T01:39:55;3.72;;;1.70;;
58876;SDS011;44659;47.002;9.536;2022-07-17T01:42:25;3.85;;;1.67;;
58876;SDS011;44659;47.002;9.536;2022-07-17T01:48:04;6.15;;;1.70;;
58876;SDS011;44659;47.002;9.536;2022-07-17T01:54:03;3.67;;;1.73;;
58876;SDS011;44659;47.002;9.536;2022-07-17T01:56:28;3.67;;;1.88;;
58876;SDS011;44659;47.002;9.536;2022-07-17T01:58:53;3.17;;;1.73;;
58876;SDS011;44659;47.002;9.536;2022-07-17T02:01:18;4.53;;;1.70;;
58876;SDS011;44659;47.002;9.536;2022-07-17T02:03:44;5.65;;;1.55;;
58876;SDS011;44659;47.002;9.536;2022-07-17T02:06:09;7.17;;;2.00;;
58876;SDS011;44659;47.002;9.536;2022-07-17T02:08:34;3.92;;;1.65;;
58876;SDS011;44659;47.002;9.536;2022-07-17T02:11:00;3.77;;;1.70;;
58876;SDS011;44659;47.002;9.536;2022-07-17T02:13:25;5.40;;;1.70;;
58876;SDS011;44659;47.002;9.536;2022-07-17T02:15:50;6.45;;;2.00;;
58876;SDS011;44659;47.002;9.536;2022-07-17T02:18:15;4.37;;;1.93;;
58876;SDS011;44659;47.002;9.536;2022-07-17T02:20:41;2.93;;;1.80;;
58876;SDS011;44659;47.002;9.536;2022-07-17T02:23:06;4.30;;;2.13;;
58876;SDS011;44659;47.002;9.536;2022-07-17T02:25:32;4.90;;;2.10;;
58876;SDS011;44659;47.002;9.536;2022-07-17T02:27:57;5.00;;;2.42;;
58876;SDS011;44659;47.002;9.536;2022-07-17T02:30:22;7.67;;;2.33;;
58876;SDS011;44659;47.002;9.536;2022-07-17T02:32:47;4.70;;;2.40;;
58876;SDS011;44659;47.002;9.536;2022-07-17T02:35:12;4.50;;;2.40;;
58876;SDS011;44659;47.002;9.536;2022-07-17T02:37:38;4.32;;;2.30;;
58876;SDS011;44659;47.002;9.536;2022-07-17T02:40:03;4.68;;;2.83;;
58876;SDS011;44659;47.002;9.536;2022-07-17T02:42:29;4.60;;;2.30;;
58876;SDS011;44659;47.002;9.536;2022-07-17T02:44:54;5.40;;;2.78;;
58876;SDS011;44659;47.002;9.536;2022-07-17T02:47:22;5.82;;;2.83;;
58876;SDS011;44659;47.002;9.536;2022-07-17T02:49:47;8.98;;;3.58;;
58876;SDS011;44659;47.002;9.536;2022-07-17T02:52:13;5.13;;;2.72;;
58876;SDS011;44659;47.002;9.536;2022-07-17T02:54:38;6.77;;;2.80;;
58876;SDS011;44659;47.002;9.536;2022-07-17T02:57:03;4.90;;;2.80;;
58876;SDS011;44659;47.002;9.536;2022-07-17T02:59:28;4.47;;;2.40;;
58876;SDS011;44659;47.002;9.536;2022-07-17T03:01:54;4.35;;;2.75;;
58876;SDS011;44659;47.002;9.536;2022-07-17T03:04:19;7.18;;;2.88;;
58876;SDS011;44659;47.002;9.536;2022-07-17T03:06:45;6.10;;;2.50;;
58876;SDS011;44659;47.002;9.536;2022-07-17T03:09:10;5.80;;;2.70;;
58876;SDS011;44659;47.002;9.536;2022-07-17T03:11:35;5.83;;;2.57;;
58876;SDS011;44659;47.002;9.536;2022-07-17T03:14:00;11.27;;;2.60;;
58876;SDS011;44659;47.002;9.536;2022-07-17T03:16:25;4.50;;;2.80;;
58876;SDS011;44659;47.002;9.536;2022-07-17T03:18:51;4.60;;;2.47;;
58876;SDS011;44659;47.002;9.536;2022-07-17T03:21:16;7.30;;;2.80;;
58876;SDS011;44659;47.002;9.536;2022-07-17T03:23:41;8.00;;;2.80;;
58876;SDS011;44659;47.002;9.536;2022-07-17T03:26:06;5.17;;;2.90;;
58876;SDS011;44659;47.002;9.536;2022-07-17T03:28:31;4.77;;;2.70;;
58876;SDS011;44659;47.002;9.536;2022-07-17T03:30:57;5.50;;;2.40;;
58876;SDS011;44659;47.002;9.536;2022-07-17T03:33:22;7.43;;;2.70;;
58876;SDS011;44659;47.002;9.536;2022-07-17T03:35:47;6.07;;;2.57;;
58876;SDS011;44659;47.002;9.536;2022-07-17T03:38:12;6.60;;;2.30;;
58876;SDS011;44659;47.002;9.536;2022-07-17T03:40:37;5.87;;;2.43;;
58876;SDS011;44659;47.002;9.536;2022-07-17T03:43:03;5.03;;;2.30;;
58876;SDS011;44659;47.002;9.536;2022-07-17T03:45:28;4.07;;;2.27;;
58876;SDS011;44659;47.002;9.536;2022-07-17T03:47:53;4.60;;;2.30;;
58876;SDS011;44659;47.002;9.536;2022-07-17T03:50:19;4.80;;;2.50;;
58876;SDS011;44659;47.002;9.536;2022-07-17T03:52:45;6.72;;;2.63;;
58876;SDS011;44659;47.002;9.536;2022-07-17T03:55:10;5.00;;;2.50;;
58876;SDS011;44659;47.002;9.536;2022-07-17T03:57:35;5.18;;;2.70;;
58876;SDS011;44659;47.002;9.536;2022-07-17T04:00:00;5.00;;;2.67;;
58876;SDS011;44659;47.002;9.536;2022-07-17T04:02:26;5.22;;;3.03;;
58876;SDS011;44659;47.002;9.536;2022-07-17T04:04:51;4.63;;;2.40;;
58876;SDS011;44659;47.002;9.536;2022-07-17T04:07:16;4.83;;;2.80;;
58876;SDS011;44659;47.002;9.536;2022-07-17T04:10:04;5.03;;;2.65;;
58876;SDS011;44659;47.002;9.536;2022-07-17T04:12:30;7.40;;;3.10;;
58876;SDS011;44659;47.002;9.536;2022-07-17T04:14:55;4.57;;;2.50;;
58876;SDS011;44659;47.002;9.536;2022-07-17T04:17:20;4.38;;;2.40;;
58876;SDS011;44659;47.002;9.536;2022-07-17T04:19:46;6.65;;;2.67;;
58876;SDS011;44659;47.002;9.536;2022-07-17T04:22:11;5.60;;;2.78;;
58876;SDS011;44659;47.002;9.536;2022-07-17T04:24:36;6.05;;;2.47;;
58876;SDS011;44659;47.002;9.536;2022-07-17T04:27:02;4.13;;;2.55;;
58876;SDS011;44659;47.002;9.536;2022-07-17T04:29:27;6.00;;;2.90;;
58876;SDS011;44659;47.002;9.536;2022-07-17T04:31:52;6.90;;;3.00;;
58876;SDS011;44659;47.002;9.536;2022-07-17T04:34:17;6.23;;;2.93;;
58876;SDS011;44659;47.002;9.536;2022-07-17T04:36:44;4.95;;;2.60;;
58876;SDS011;44659;47.002;9.536;2022-07-17T04:39:09;5.47;;;2.53;;
58876;SDS011;44659;47.002;9.536;2022-07-17T04:41:34;5.40;;;2.53;;
58876;SDS011;44659;47.002;9.536;2022-07-17T04:43:59;5.30;;;2.73;;
58876;SDS011;44659;47.002;9.536;2022-07-17T04:46:24;4.33;;;2.43;;
58876;SDS011;44659;47.002;9.536;2022-07-17T04:48:50;4.28;;;2.47;;
58876;SDS011;44659;47.002;9.536;2022-07-17T04:51:15;4.83;;;2.50;;
58876;SDS011;44659;47.002;9.536;2022-07-17T04:53:40;4.65;;;2.50;;
58876;SDS011;44659;47.002;9.536;2022-07-17T04:56:05;5.83;;;2.77;;
58876;SDS011;44659;47.002;9.536;2022-07-17T04:58:30;6.93;;;2.70;;
58876;SDS011;44659;47.002;9.536;2022-07-17T05:01:02;4.30;;;2.47;;
58876;SDS011;44659;47.002;9.536;2022-07-17T05:04:05;4.85;;;2.80;;
58876;SDS011;44659;47.002;9.536;2022-07-17T05:06:30;6.93;;;2.77;;
58876;SDS011;44659;47.002;9.536;2022-07-17T05:08:56;7.22;;;2.85;;
58876;SDS011;44659;47.002;9.536;2022-07-17T05:11:21;5.57;;;2.67;;
58876;SDS011;44659;47.002;9.536;2022-07-17T05:13:46;4.87;;;2.57;;
58876;SDS011;44659;47.002;9.536;2022-07-17T05:16:11;6.07;;;2.92;;
58876;SDS011;44659;47.002;9.536;2022-07-17T05:18:37;6.25;;;2.33;;
58876;SDS011;44659;47.002;9.536;2022-07-17T05:21:03;4.70;;;2.80;;
58876;SDS011;44659;47.002;9.536;2022-07-17T05:23:28;7.15;;;2.97;;
58876;SDS011;44659;47.002;9.536;2022-07-17T05:25:54;5.55;;;2.70;;
58876;SDS011;44659;47.002;9.536;2022-07-17T05:28:19;4.05;;;2.45;;
58876;SDS011;44659;47.002;9.536;2022-07-17T05:30:44;6.55;;;2.92;;
58876;SDS011;44659;47.002;9.536;2022-07-17T05:33:09;5.97;;;3.13;;
58876;SDS011;44659;47.002;9.536;2022-07-17T05:35:34;6.30;;;2.80;;
58876;SDS011;44659;47.002;9.536;2022-07-17T05:38:00;7.43;;;2.70;;
58876;SDS011;44659;47.002;9.536;2022-07-17T05:40:25;4.80;;;2.73;;
58876;SDS011;44659;47.002;9.536;2022-07-17T05:42:50;5.25;;;2.67;;
58876;SDS011;44659;47.002;9.536;2022-07-17T05:45:16;4.68;;;2.80;;
58876;SDS011;44659;47.002;9.536;2022-07-17T05:47:41;6.37;;;2.90;;
58876;SDS011;44659;47.002;9.536;2022-07-17T05:50:08;8.97;;;2.87;;
58876;SDS011;44659;47.002;9.536;2022-07-17T05:52:33;5.40;;;2.80;;
58876;SDS011;44659;47.002;9.536;2022-07-17T05:54:58;6.68;;;2.83;;
58876;SDS011;44659;47.002;9.536;2022-07-17T05:57:23;5.80;;;2.53;;
58876;SDS011;44659;47.002;9.536;2022-07-17T06:02:24;5.35;;;2.80;;
58876;SDS011;44659;47.002;9.536;2022-07-17T06:04:51;5.45;;;2.72;;
58876;SDS011;44659;47.002;9.536;2022-07-17T06:07:17;5.20;;;3.00;;
58876;SDS011;44659;47.002;9.536;2022-07-17T06:09:42;6.90;;;2.90;;
58876;SDS011;44659;47.002;9.536;2022-07-17T06:12:07;7.10;;;2.90;;
58876;SDS011;44659;47.002;9.536;2022-07-17T06:14:32;9.15;;;2.70;;
58876;SDS011;44659;47.002;9.536;2022-07-17T06:16:57;5.10;;;3.00;;
58876;SDS011;44659;47.002;9.536;2022-07-17T06:19:23;6.90;;;2.90;;
58876;SDS011;44659;47.002;9.536;2022-07-17T06:21:48;4.57;;;2.83;;
58876;SDS011;44659;47.002;9.536;2022-07-17T06:24:13;5.10;;;2.40;;
58876;SDS011;44659;47.002;9.536;2022-07-17T06:26:38;5.67;;;2.53;;
58876;SDS011;44659;47.002;9.536;2022-07-17T06:29:04;10.73;;;2.83;;
58876;SDS011;44659;47.002;9.536;2022-07-17T06:31:29;7.85;;;2.92;;
58876;SDS011;44659;47.002;9.536;2022-07-17T06:33:54;5.05;;;2.78;;
58876;SDS011;44659;47.002;9.536;2022-07-17T06:36:19;5.20;;;2.60;;
58876;SDS011;44659;47.002;9.536;2022-07-17T06:38:45;7.90;;;2.67;;
58876;SDS011;44659;47.002;9.536;2022-07-17T06:41:10;5.20;;;2.70;;
58876;SDS011;44659;47.002;9.536;2022-07-17T06:43:35;7.80;;;2.73;;
58876;SDS011;44659;47.002;9.536;2022-07-17T06:46:00;5.17;;;2.70;;
58876;SDS011;44659;47.002;9.536;2022-07-17T06:48:26;5.00;;;2.50;;
58876;SDS011;44659;47.002;9.536;2022-07-17T06:50:51;5.30;;;2.37;;
58876;SDS011;44659;47.002;9.536;2022-07-17T06:53:16;8.20;;;2.75;;
58876;SDS011;44659;47.002;9.536;2022-07-17T06:55:41;5.80;;;2.33;;
58876;SDS011;44659;47.002;9.536;2022-07-17T06:58:07;5.22;;;2.40;;
58876;SDS011;44659;47.002;9.536;2022-07-17T07:00:32;5.80;;;2.42;;
58876;SDS011;44659;47.002;9.536;2022-07-17T07:02:58;5.43;;;2.20;;
58876;SDS011;44659;47.002;9.536;2022-07-17T07:05:23;5.70;;;2.90;;
58876;SDS011;44659;47.002;9.536;2022-07-17T07:07:49;10.53;;;2.20;;
58876;SDS011;44659;47.002;9.536;2022-07-17T07:10:14;4.50;;;2.30;;
58876;SDS011;44659;47.002;9.536;2022-07-17T07:12:39;5.28;;;2.83;;
58876;SDS011;44659;47.002;9.536;2022-07-17T07:15:05;5.73;;;2.73;;
58876;SDS011;44659;47.002;9.536;2022-07-17T07:17:30;5.55;;;2.65;;
58876;SDS011;44659;47.002;9.536;2022-07-17T07:19:57;4.63;;;2.25;;
58876;SDS011;44659;47.002;9.536;2022-07-17T07:22:22;5.35;;;2.60;;
58876;SDS011;44659;47.002;9.536;2022-07-17T07:24:47;6.77;;;2.90;;
58876;SDS011;44659;47.002;9.536;2022-07-17T07:27:12;7.20;;;2.30;;
58876;SDS011;44659;47.002;9.536;2022-07-17T07:29:38;5.97;;;2.47;;
58876;SDS011;44659;47.002;9.536;2022-07-17T07:32:03;4.27;;;2.40;;
58876;SDS011;44659;47.002;9.536;2022-07-17T07:34:29;5.53;;;2.60;;
58876;SDS011;44659;47.002;9.536;2022-07-17T07:36:54;4.25;;;2.15;;
58876;SDS011;44659;47.002;9.536;2022-07-17T07:39:20;5.18;;;2.40;;
58876;SDS011;44659;47.002;9.536;2022-07-17T07:41:45;8.50;;;2.30;;
58876;SDS011;44659;47.002;9.536;2022-07-17T07:44:11;4.63;;;2.47;;
58876;SDS011;44659;47.002;9.536;2022-07-17T07:46:37;7.15;;;2.55;;
58876;SDS011;44659;47.002;9.536;2022-07-17T07:49:02;5.37;;;2.30;;
58876;SDS011;44659;47.002;9.536;2022-07-17T07:51:28;4.95;;;2.30;;
58876;SDS011;44659;47.002;9.536;2022-07-17T07:53:53;5.67;;;2.20;;
58876;SDS011;44659;47.002;9.536;2022-07-17T07:56:18;5.87;;;2.27;;
58876;SDS011;44659;47.002;9.536;2022-07-17T07:58:43;6.05;;;2.42;;
58876;SDS011;44659;47.002;9.536;2022-07-17T08:01:09;4.38;;;2.00;;
58876;SDS011;44659;47.002;9.536;2022-07-17T08:03:34;7.03;;;2.60;;
58876;SDS011;44659;47.002;9.536;2022-07-17T08:05:59;6.87;;;2.23;;
58876;SDS011;44659;47.002;9.536;2022-07-17T08:08:24;6.83;;;2.33;;
58876;SDS011;44659;47.002;9.536;2022-07-17T08:10:49;4.88;;;2.40;;
58876;SDS011;44659;47.002;9.536;2022-07-17T08:13:15;7.65;;;2.72;;
58876;SDS011;44659;47.002;9.536;2022-07-17T08:15:42;5.25;;;2.42;;
58876;SDS011;44659;47.002;9.536;2022-07-17T08:18:07;4.63;;;2.40;;
58876;SDS011;44659;47.002;9.536;2022-07-17T08:20:32;6.10;;;2.40;;
58876;SDS011;44659;47.002;9.536;2022-07-17T08:22:57;4.90;;;2.53;;
58876;SDS011;44659;47.002;9.536;2022-07-17T08:25:23;5.17;;;2.20;;
58876;SDS011;44659;47.002;9.536;2022-07-17T08:27:48;8.70;;;2.97;;
58876;SDS011;44659;47.002;9.536;2022-07-17T08:30:13;8.17;;;2.77;;
58876;SDS011;44659;47.002;9.536;2022-07-17T08:32:39;5.13;;;2.30;;
58876;SDS011;44659;47.002;9.536;2022-07-17T08:35:04;5.38;;;2.30;;
58876;SDS011;44659;47.002;9.536;2022-07-17T08:37:30;5.75;;;2.45;;
58876;SDS011;44659;47.002;9.536;2022-07-17T08:39:56;5.03;;;2.22;;
58876;SDS011;44659;47.002;9.536;2022-07-17T08:42:21;5.38;;;2.50;;
58876;SDS011;44659;47.002;9.536;2022-07-17T08:44:46;5.30;;;2.17;;
58876;SDS011;44659;47.002;9.536;2022-07-17T08:47:12;4.00;;;2.27;;
58876;SDS011;44659;47.002;9.536;2022-07-17T08:49:39;5.45;;;2.53;;
58876;SDS011;44659;47.002;9.536;2022-07-17T08:52:05;5.97;;;2.25;;
58876;SDS011;44659;47.002;9.536;2022-07-17T08:54:31;3.80;;;1.95;;
58876;SDS011;44659;47.002;9.536;2022-07-17T08:56:56;4.30;;;2.00;;
58876;SDS011;44659;47.002;9.536;2022-07-17T08:59:22;4.28;;;2.10;;
58876;SDS011;44659;47.002;9.536;2022-07-17T09:01:47;4.97;;;2.50;;
58876;SDS011;44659;47.002;9.536;2022-07-17T09:04:12;4.40;;;2.03;;
58876;SDS011;44659;47.002;9.536;2022-07-17T09:06:37;6.13;;;2.40;;
58876;SDS011;44659;47.002;9.536;2022-07-17T09:09:04;4.57;;;2.38;;
58876;SDS011;44659;47.002;9.536;2022-07-17T09:11:30;3.85;;;1.95;;
58876;SDS011;44659;47.002;9.536;2022-07-17T09:14:05;3.42;;;2.00;;
58876;SDS011;44659;47.002;9.536;2022-07-17T09:16:31;4.77;;;2.23;;
58876;SDS011;44659;47.002;9.536;2022-07-17T09:18:59;5.68;;;2.20;;
58876;SDS011;44659;47.002;9.536;2022-07-17T09:21:26;4.25;;;2.00;;
58876;SDS011;44659;47.002;9.536;2022-07-17T09:23:58;4.72;;;2.20;;
58876;SDS011;44659;47.002;9.536;2022-07-17T09:26:23;3.80;;;1.80;;
58876;SDS011;44659;47.002;9.536;2022-07-17T09:28:49;4.78;;;2.13;;
58876;SDS011;44659;47.002;9.536;2022-07-17T09:31:23;3.93;;;1.90;;
58876;SDS011;44659;47.002;9.536;2022-07-17T09:33:49;4.75;;;2.10;;
58876;SDS011;44659;47.002;9.536;2022-07-17T09:36:14;4.60;;;2.20;;
58876;SDS011;44659;47.002;9.536;2022-07-17T09:38:40;5.47;;;1.97;;
58876;SDS011;44659;47.002;9.536;2022-07-17T09:41:07;5.85;;;2.00;;
58876;SDS011;44659;47.002;9.536;2022-07-17T09:43:41;4.13;;;2.22;;
58876;SDS011;44659;47.002;9.536;2022-07-17T09:46:09;3.65;;;2.00;;
58876;SDS011;44659;47.002;9.536;2022-07-17T09:51:28;6.70;;;2.13;;
58876;SDS011;44659;47.002;9.536;2022-07-17T09:53:57;3.97;;;2.10;;
58876;SDS011;44659;47.002;9.536;2022-07-17T09:56:24;4.53;;;2.08;;
58876;SDS011;44659;47.002;9.536;2022-07-17T09:58:51;4.75;;;1.83;;
58876;SDS011;44659;47.002;9.536;2022-07-17T10:01:17;4.13;;;2.00;;
58876;SDS011;44659;47.002;9.536;2022-07-17T10:03:42;6.13;;;2.20;;
58876;SDS011;44659;47.002;9.536;2022-07-17T10:06:09;5.22;;;2.13;;
58876;SDS011;44659;47.002;9.536;2022-07-17T10:08:35;3.97;;;1.90;;
58876;SDS011;44659;47.002;9.536;2022-07-17T10:11:00;5.00;;;1.90;;
58876;SDS011;44659;47.002;9.536;2022-07-17T10:13:26;5.50;;;1.92;;
58876;SDS011;44659;47.002;9.536;2022-07-17T10:15:52;3.58;;;1.60;;
58876;SDS011;44659;47.002;9.536;2022-07-17T10:18:20;7.47;;;1.88;;
58876;SDS011;44659;47.002;9.536;2022-07-17T10:20:45;6.20;;;2.03;;
58876;SDS011;44659;47.002;9.536;2022-07-17T10:23:14;4.82;;;1.90;;
58876;SDS011;44659;47.002;9.536;2022-07-17T10:25:39;4.72;;;1.58;;
58876;SDS011;44659;47.002;9.536;2022-07-17T10:28:04;3.05;;;1.50;;
58876;SDS011;44659;47.002;9.536;2022-07-17T10:30:30;4.57;;;1.60;;
58876;SDS011;44659;47.002;9.536;2022-07-17T10:33:05;6.25;;;2.00;;
58876;SDS011;44659;47.002;9.536;2022-07-17T10:38:09;11.20;;;2.25;;
58876;SDS011;44659;47.002;9.536;2022-07-17T10:40:36;3.08;;;1.67;;
58876;SDS011;44659;47.002;9.536;2022-07-17T10:43:02;3.40;;;1.60;;
58876;SDS011;44659;47.002;9.536;2022-07-17T10:45:35;7.38;;;1.88;;
58876;SDS011;44659;47.002;9.536;2022-07-17T10:48:06;3.08;;;1.55;;
58876;SDS011;44659;47.002;9.536;2022-07-17T10:50:39;4.53;;;1.92;;
58876;SDS011;44659;47.002;9.536;2022-07-17T10:53:09;4.45;;;2.00;;
58876;SDS011;44659;47.002;9.536;2022-07-17T10:55:35;11.70;;;2.10;;
58876;SDS011;44659;47.002;9.536;2022-07-17T10:58:01;4.18;;;1.70;;
58876;SDS011;44659;47.002;9.536;2022-07-17T11:00:27;3.90;;;1.60;;
58876;SDS011;44659;47.002;9.536;2022-07-17T11:02:52;3.70;;;1.77;;
58876;SDS011;44659;47.002;9.536;2022-07-17T11:05:17;4.35;;;1.50;;
58876;SDS011;44659;47.002;9.536;2022-07-17T11:10:14;3.17;;;1.52;;
58876;SDS011;44659;47.002;9.536;2022-07-17T11:12:39;3.23;;;1.57;;
58876;SDS011;44659;47.002;9.536;2022-07-17T11:15:05;4.00;;;1.80;;
58876;SDS011;44659;47.002;9.536;2022-07-17T11:17:31;6.22;;;1.50;;
58876;SDS011;44659;47.002;9.536;2022-07-17T11:20:07;2.60;;;1.27;;
58876;SDS011;44659;47.002;9.536;2022-07-17T11:22:33;3.30;;;1.70;;
58876;SDS011;44659;47.002;9.536;2022-07-17T11:24:59;3.38;;;1.65;;
58876;SDS011;44659;47.002;9.536;2022-07-17T11:27:25;4.57;;;1.75;;
58876;SDS011;44659;47.002;9.536;2022-07-17T11:29:52;2.70;;;1.33;;
58876;SDS011;44659;47.002;9.536;2022-07-17T11:32:18;3.17;;;1.60;;
58876;SDS011;44659;47.002;9.536;2022-07-17T11:34:43;3.53;;;1.40;;
58876;SDS011;44659;47.002;9.536;2022-07-17T11:37:09;3.58;;;1.40;;
58876;SDS011;44659;47.002;9.536;2022-07-17T11:39:48;3.55;;;1.45;;
58876;SDS011;44659;47.002;9.536;2022-07-17T11:42:14;4.55;;;1.40;;
58876;SDS011;44659;47.002;9.536;2022-07-17T11:44:40;3.20;;;1.30;;
58876;SDS011;44659;47.002;9.536;2022-07-17T11:47:06;4.22;;;1.40;;
58876;SDS011;44659;47.002;9.536;2022-07-17T11:49:32;3.55;;;1.70;;
58876;SDS011;44659;47.002;9.536;2022-07-17T11:52:21;4.22;;;1.75;;
58876;SDS011;44659;47.002;9.536;2022-07-17T11:54:55;3.67;;;1.60;;
58876;SDS011;44659;47.002;9.536;2022-07-17T11:57:26;7.38;;;1.50;;
58876;SDS011;44659;47.002;9.536;2022-07-17T11:59:51;24.95;;;2.65;;
58876;SDS011;44659;47.002;9.536;2022-07-17T12:02:21;4.10;;;1.52;;
58876;SDS011;44659;47.002;9.536;2022-07-17T12:04:50;5.13;;;1.50;;
58876;SDS011;44659;47.002;9.536;2022-07-17T12:07:16;5.35;;;1.70;;
58876;SDS011;44659;47.002;9.536;2022-07-17T12:09:41;4.53;;;1.63;;
58876;SDS011;44659;47.002;9.536;2022-07-17T12:12:17;2.78;;;1.40;;
58876;SDS011;44659;47.002;9.536;2022-07-17T12:14:50;4.47;;;1.27;;
58876;SDS011;44659;47.002;9.536;2022-07-17T12:17:17;7.90;;;2.40;;
58876;SDS011;44659;47.002;9.536;2022-07-17T12:19:44;6.13;;;1.48;;
58876;SDS011;44659;47.002;9.536;2022-07-17T12:22:09;3.13;;;1.33;;
58876;SDS011;44659;47.002;9.536;2022-07-17T12:24:39;5.25;;;1.60;;
58876;SDS011;44659;47.002;9.536;2022-07-17T12:27:08;3.30;;;1.40;;
58876;SDS011;44659;47.002;9.536;2022-07-17T12:29:37;4.60;;;1.33;;
58876;SDS011;44659;47.002;9.536;2022-07-17T12:32:09;4.97;;;1.55;;
58876;SDS011;44659;47.002;9.536;2022-07-17T12:34:40;2.72;;;1.30;;
58876;SDS011;44659;47.002;9.536;2022-07-17T12:37:12;5.78;;;1.42;;
58876;SDS011;44659;47.002;9.536;2022-07-17T12:39:37;3.60;;;1.70;;
58876;SDS011;44659;47.002;9.536;2022-07-17T12:42:03;3.35;;;1.48;;
58876;SDS011;44659;47.002;9.536;2022-07-17T12:44:29;4.15;;;1.42;;
58876;SDS011;44659;47.002;9.536;2022-07-17T12:46:55;6.85;;;1.63;;
58876;SDS011;44659;47.002;9.536;2022-07-17T12:49:22;3.30;;;1.38;;
58876;SDS011;44659;47.002;9.536;2022-07-17T12:51:49;2.67;;;1.25;;
58876;SDS011;44659;47.002;9.536;2022-07-17T12:54:14;5.80;;;1.40;;
58876;SDS011;44659;47.002;9.536;2022-07-17T12:56:41;5.18;;;1.27;;
58876;SDS011;44659;47.002;9.536;2022-07-17T12:59:08;3.13;;;1.50;;
58876;SDS011;44659;47.002;9.536;2022-07-17T13:01:34;6.95;;;1.98;;
58876;SDS011;44659;47.002;9.536;2022-07-17T13:04:00;3.10;;;1.30;;
58876;SDS011;44659;47.002;9.536;2022-07-17T13:06:29;3.05;;;1.20;;
58876;SDS011;44659;47.002;9.536;2022-07-17T13:08:54;6.10;;;1.65;;
58876;SDS011;44659;47.002;9.536;2022-07-17T13:11:20;5.00;;;1.58;;
58876;SDS011;44659;47.002;9.536;2022-07-17T13:13:45;4.57;;;1.40;;
58876;SDS011;44659;47.002;9.536;2022-07-17T13:16:13;2.65;;;1.40;;
58876;SDS011;44659;47.002;9.536;2022-07-17T13:18:39;3.78;;;1.60;;
58876;SDS011;44659;47.002;9.536;2022-07-17T13:21:05;4.07;;;1.45;;
58876;SDS011;44659;47.002;9.536;2022-07-17T13:23:31;4.68;;;1.30;;
58876;SDS011;44659;47.002;9.536;2022-07-17T13:25:57;2.92;;;1.40;;
58876;SDS011;44659;47.002;9.536;2022-07-17T13:28:23;2.42;;;1.10;;
58876;SDS011;44659;47.002;9.536;2022-07-17T13:30:50;5.15;;;1.40;;
58876;SDS011;44659;47.002;9.536;2022-07-17T13:33:15;6.45;;;1.58;;
58876;SDS011;44659;47.002;9.536;2022-07-17T13:35:42;3.53;;;1.55;;
58876;SDS011;44659;47.002;9.536;2022-07-17T13:38:08;2.53;;;1.33;;
58876;SDS011;44659;47.002;9.536;2022-07-17T13:40:46;6.13;;;1.95;;
58876;SDS011;44659;47.002;9.536;2022-07-17T13:43:11;4.50;;;1.08;;
58876;SDS011;44659;47.002;9.536;2022-07-17T13:45:42;4.80;;;1.33;;
58876;SDS011;44659;47.002;9.536;2022-07-17T13:48:08;4.45;;;1.38;;
58876;SDS011;44659;47.002;9.536;2022-07-17T13:50:35;2.83;;;1.20;;
58876;SDS011;44659;47.002;9.536;2022-07-17T13:53:01;2.70;;;1.17;;
58876;SDS011;44659;47.002;9.536;2022-07-17T13:55:27;7.95;;;1.15;;
58876;SDS011;44659;47.002;9.536;2022-07-17T13:58:08;1.92;;;1.23;;
58876;SDS011;44659;47.002;9.536;2022-07-17T14:00:35;2.78;;;1.20;;
58876;SDS011;44659;47.002;9.536;2022-07-17T14:03:03;5.50;;;1.55;;
58876;SDS011;44659;47.002;9.536;2022-07-17T14:05:31;3.22;;;1.38;;
58876;SDS011;44659;47.002;9.536;2022-07-17T14:07:58;2.45;;;1.35;;
58876;SDS011;44659;47.002;9.536;2022-07-17T14:13:09;4.65;;;1.40;;
58876;SDS011;44659;47.002;9.536;2022-07-17T14:15:34;4.10;;;1.23;;
58876;SDS011;44659;47.002;9.536;2022-07-17T14:18:00;2.75;;;1.50;;
58876;SDS011;44659;47.002;9.536;2022-07-17T14:20:26;3.17;;;1.40;;
58876;SDS011;44659;47.002;9.536;2022-07-17T14:22:52;3.13;;;1.30;;
58876;SDS011;44659;47.002;9.536;2022-07-17T14:25:19;3.33;;;1.30;;
58876;SDS011;44659;47.002;9.536;2022-07-17T14:27:44;2.92;;;1.20;;
58876;SDS011;44659;47.002;9.536;2022-07-17T14:30:10;6.28;;;1.27;;
58876;SDS011;44659;47.002;9.536;2022-07-17T14:32:35;5.78;;;1.30;;
58876;SDS011;44659;47.002;9.536;2022-07-17T14:35:02;3.10;;;1.73;;
58876;SDS011;44659;47.002;9.536;2022-07-17T14:37:27;2.90;;;1.40;;
58876;SDS011;44659;47.002;9.536;2022-07-17T14:39:52;6.03;;;1.40;;
58876;SDS011;44659;47.002;9.536;2022-07-17T14:42:18;2.75;;;1.30;;
58876;SDS011;44659;47.002;9.536;2022-07-17T14:44:43;4.07;;;1.30;;
58876;SDS011;44659;47.002;9.536;2022-07-17T14:47:10;5.55;;;1.50;;
58876;SDS011;44659;47.002;9.536;2022-07-17T14:49:36;6.97;;;1.15;;
58876;SDS011;44659;47.002;9.536;2022-07-17T14:52:01;5.60;;;1.47;;
58876;SDS011;44659;47.002;9.536;2022-07-17T14:54:26;8.85;;;1.45;;
58876;SDS011;44659;47.002;9.536;2022-07-17T14:56:52;2.97;;;1.30;;
58876;SDS011;44659;47.002;9.536;2022-07-17T14:59:19;4.35;;;1.30;;
58876;SDS011;44659;47.002;9.536;2022-07-17T15:01:44;3.70;;;1.33;;
58876;SDS011;44659;47.002;9.536;2022-07-17T15:04:09;3.57;;;1.37;;
58876;SDS011;44659;47.002;9.536;2022-07-17T15:06:37;6.57;;;1.30;;
58876;SDS011;44659;47.002;9.536;2022-07-17T15:09:02;3.53;;;1.10;;
58876;SDS011;44659;47.002;9.536;2022-07-17T15:11:27;2.37;;;1.20;;
58876;SDS011;44659;47.002;9.536;2022-07-17T15:13:52;2.85;;;1.10;;
58876;SDS011;44659;47.002;9.536;2022-07-17T15:16:18;9.07;;;1.23;;
58876;SDS011;44659;47.002;9.536;2022-07-17T15:18:43;3.90;;;1.25;;